Time;durP1;ratioP1;P1;durP2;ratioP2;P2;SDS_P1;SDS_P2;PMS_P1;PMS_P2;Temp;Humidity;BMP_temperature;BMP_pressure;BME280_temperature;BME280_humidity;BME280_pressure;Samples;Min_cycle;Max_cycle;Signal;HPM_P1;HPM_P2
2023/11/18 00:00:26;;;;;;;;;;;;;;;10.36;55.88;101307.22;4966318;27;98494;-64
2023/11/18 00:02:52;;;;;;;;;;;;;;;10.37;55.84;101308.03;4967124;27;98355;-69
2023/11/18 00:05:18;;;;;;;;;;;;;;;10.36;56.01;101311.81;4979694;27;126423;-64
2023/11/18 00:07:44;;;;;;;;;;;;;;;10.36;56.00;101312.63;4968383;27;99104;-69
2023/11/18 00:10:10;;;;;;;;;;;;;;;10.36;55.89;101315.31;4985705;27;128558;-69
2023/11/18 00:12:39;;;;;;;;;;;;;;;10.37;56.02;101316.13;4971186;27;98130;-69
2023/11/18 00:15:08;;;;;;;;;;;;;;;10.36;55.89;101320.72;4987442;27;98049;-64
2023/11/18 00:17:34;;;;;;;;;;;;;;;10.36;56.14;101319.91;4982025;27;99431;-65
2023/11/18 00:20:00;;;;;;;;;;;;;;;10.36;56.09;101325.28;4993909;27;98390;-69
2023/11/18 00:22:27;;;;;;;;;;;;;;;10.36;56.05;101330.69;4966235;27;118490;-65
2023/11/18 00:24:55;;;;;;;;;;;;;;;10.35;55.72;101335.25;4996403;27;98670;-69
2023/11/18 00:27:22;;;;;;;;;;;;;;;10.35;55.90;101332.56;4966660;27;98366;-65
2023/11/18 00:29:48;;;;;;;;;;;;;;;10.35;56.22;101340.63;4973786;27;98423;-69
2023/11/18 00:32:14;;;;;;;;;;;;;;;10.35;56.02;101342.53;4964648;27;118124;-69
2023/11/18 00:34:40;;;;;;;;;;;;;;;10.35;55.89;101343.34;4965788;27;98116;-65
2023/11/18 00:37:07;;;;;;;;;;;;;;;10.34;56.12;101344.41;4963438;27;117871;-69
2023/11/18 00:39:33;;;;;;;;;;;;;;;10.34;55.71;101349.78;4966165;27;98479;-65
2023/11/18 00:41:59;;;;;;;;;;;;;;;10.34;55.68;101359.75;4984749;27;98190;-69
2023/11/18 00:44:25;;;;;;;;;;;;;;;10.34;55.91;101357.06;4971564;27;120012;-69
2023/11/18 00:46:51;;;;;;;;;;;;;;;10.32;56.07;101347.31;4988905;27;128162;-68
2023/11/18 00:49:17;;;;;;;;;;;;;;;10.32;55.93;101358.09;4979685;27;99689;-65
2023/11/18 00:51:43;;;;;;;;;;;;;;;10.32;55.90;101358.09;4968488;27;98235;-69
2023/11/18 00:54:10;;;;;;;;;;;;;;;10.32;55.81;101363.50;4967834;27;100118;-65
2023/11/18 00:56:36;;;;;;;;;;;;;;;10.34;55.88;101365.16;4967209;27;98662;-64
2023/11/18 00:59:02;;;;;;;;;;;;;;;10.33;55.92;101364.31;4976766;27;98070;-69
2023/11/18 01:01:28;;;;;;;;;;;;;;;10.33;55.84;101364.31;4980140;27;107264;-69
2023/11/18 01:03:54;;;;;;;;;;;;;;;10.31;56.13;101361.88;4975128;27;99044;-65
2023/11/18 01:06:21;;;;;;;;;;;;;;;10.32;56.09;101373.47;4963611;27;98227;-69
2023/11/18 01:08:47;;;;;;;;;;;;;;;10.32;55.82;101371.59;4965479;27;98170;-70
2023/11/18 01:11:19;;;;;;;;;;;;;;;10.31;55.83;101374.53;4965592;27;103655;-64
2023/11/18 01:13:46;;;;;;;;;;;;;;;10.29;56.03;101377.44;4976040;27;99709;-64
2023/11/18 01:16:14;;;;;;;;;;;;;;;10.30;56.18;101389.06;4955892;27;98458;-69
2023/11/18 01:18:41;;;;;;;;;;;;;;;10.30;55.75;101397.16;4967160;27;98412;-68
2023/11/18 01:21:08;;;;;;;;;;;;;;;10.30;56.14;101406.06;4977357;27;100054;-65
2023/11/18 01:23:38;;;;;;;;;;;;;;;10.30;56.25;101399.84;4979175;27;98193;-65
2023/11/18 01:26:05;;;;;;;;;;;;;;;10.30;56.14;101397.16;4981597;27;98649;-64
2023/11/18 01:28:39;;;;;;;;;;;;;;;10.30;55.79;101397.97;4965372;27;98032;-69
2023/11/18 01:31:07;;;;;;;;;;;;;;;10.29;56.25;101395.50;4964194;27;98501;-69
2023/11/18 01:33:36;;;;;;;;;;;;;;;10.27;56.00;101409.22;4967299;27;99948;-64
2023/11/18 01:36:03;;;;;;;;;;;;;;;10.24;55.80;101404.28;4963272;27;98366;-69
2023/11/18 01:38:30;;;;;;;;;;;;;;;10.22;55.88;101414.50;4977537;27;99691;-64
2023/11/18 01:40:56;;;;;;;;;;;;;;;10.20;56.01;101411.22;4967508;27;98209;-64
2023/11/18 01:43:22;;;;;;;;;;;;;;;10.18;56.09;101405.28;4966576;27;99213;-68
2023/11/18 01:45:48;;;;;;;;;;;;;;;10.17;55.99;101410.88;4969303;27;98415;-69
2023/11/18 01:48:15;;;;;;;;;;;;;;;10.15;55.68;101407.63;4980061;27;99376;-65
2023/11/18 01:50:42;;;;;;;;;;;;;;;10.13;55.61;101418.63;4982264;27;100015;-64
2023/11/18 01:53:09;;;;;;;;;;;;;;;10.12;56.10;101419.69;4960158;27;115221;-69
2023/11/18 01:55:35;;;;;;;;;;;;;;;10.11;55.64;101422.63;4982883;27;98566;-69
2023/11/18 01:58:07;;;;;;;;;;;;;;;10.09;55.91;101426.38;4963330;27;130882;-69
2023/11/18 02:00:35;;;;;;;;;;;;;;;10.09;55.85;101425.56;4986322;27;98221;-69
2023/11/18 02:03:01;;;;;;;;;;;;;;;10.09;56.25;101422.88;4964090;27;98061;-65
2023/11/18 02:05:27;;;;;;;;;;;;;;;10.07;56.31;101431.19;4981557;27;98791;-65
2023/11/18 02:07:53;;;;;;;;;;;;;;;10.06;56.07;101434.13;4991850;27;100342;-64
2023/11/18 02:10:19;;;;;;;;;;;;;;;10.06;56.23;101426.03;4970045;27;97928;-64
2023/11/18 02:13:00;;;;;;;;;;;;;;;10.04;56.12;101431.66;4962974;27;98030;-69
2023/11/18 02:15:26;;;;;;;;;;;;;;;10.04;55.60;101433.56;4963572;27;98554;-69
2023/11/18 02:17:53;;;;;;;;;;;;;;;10.03;56.02;101429.22;4965311;27;127658;-64
2023/11/18 02:20:21;;;;;;;;;;;;;;;10.03;56.18;101434.63;4980250;27;98114;-69
2023/11/18 02:22:47;;;;;;;;;;;;;;;10.01;55.63;101432.16;4970730;27;98299;-65
2023/11/18 02:25:16;;;;;;;;;;;;;;;10.01;55.62;101434.84;4966654;27;98237;-69
2023/11/18 02:27:42;;;;;;;;;;;;;;;10.01;56.25;101437.53;4979673;27;98578;-69
2023/11/18 02:30:12;;;;;;;;;;;;;;;10.00;56.11;101433.22;4971162;27;98817;-69
2023/11/18 02:32:50;;;;;;;;;;;;;;;9.99;55.87;101423.50;4971238;27;98585;-64
2023/11/18 02:35:26;;;;;;;;;;;;;;;9.99;55.83;101431.59;5015517;27;97935;-64
2023/11/18 02:37:54;;;;;;;;;;;;;;;9.99;55.70;101428.06;4978974;27;99531;-69
2023/11/18 02:40:30;;;;;;;;;;;;;;;9.98;55.64;101438.03;4974448;27;98580;-69
2023/11/18 02:42:56;;;;;;;;;;;;;;;9.98;55.62;101442.56;4970576;27;99500;-64
2023/11/18 02:45:22;;;;;;;;;;;;;;;9.96;55.88;101434.75;4969587;27;98227;-64
2023/11/18 02:47:48;;;;;;;;;;;;;;;9.97;56.24;101438.25;4966200;27;99198;-69
2023/11/18 02:50:15;;;;;;;;;;;;;;;9.97;55.88;101439.06;4973087;27;98079;-64
2023/11/18 02:52:41;;;;;;;;;;;;;;;9.96;55.66;101442.00;4970795;27;98083;-64
2023/11/18 02:55:08;;;;;;;;;;;;;;;9.96;56.13;101442.84;4969169;27;99465;-69
2023/11/18 02:57:35;;;;;;;;;;;;;;;9.97;55.78;101447.16;4975140;27;98624;-64
2023/11/18 03:00:02;;;;;;;;;;;;;;;9.96;56.21;101442.84;4964293;27;97962;-70
2023/11/18 03:02:30;;;;;;;;;;;;;;;9.96;55.87;101445.53;4993083;27;99677;-64
2023/11/18 03:04:57;;;;;;;;;;;;;;;9.97;55.90;101449.03;4969802;27;98257;-64
2023/11/18 03:07:23;;;;;;;;;;;;;;;9.95;55.72;101451.97;4968945;27;99617;-65
2023/11/18 03:09:49;;;;;;;;;;;;;;;9.96;56.15;101450.91;4965588;27;97916;-65
2023/11/18 03:12:16;;;;;;;;;;;;;;;9.96;55.73;101442.84;4969172;27;98382;-65
2023/11/18 03:14:42;;;;;;;;;;;;;;;9.95;56.07;101446.59;4964737;27;98505;-64
2023/11/18 03:17:09;;;;;;;;;;;;;;;9.95;56.09;101446.59;4951832;27;98400;-64
2023/11/18 03:19:36;;;;;;;;;;;;;;;9.95;56.14;101443.91;4948261;27;98143;-65
2023/11/18 03:22:02;;;;;;;;;;;;;;;9.95;55.59;101449.28;4966074;27;99103;-64
2023/11/18 03:24:29;;;;;;;;;;;;;;;9.94;55.57;101446.81;4942526;27;98136;-64
2023/11/18 03:26:55;;;;;;;;;;;;;;;9.95;56.04;101451.97;4968028;27;98881;-64
2023/11/18 03:29:22;;;;;;;;;;;;;;;9.94;55.60;101452.19;4968405;27;98277;-64
2023/11/18 03:31:49;;;;;;;;;;;;;;;9.95;55.90;101445.78;4946128;27;99843;-65
2023/11/18 03:34:16;;;;;;;;;;;;;;;9.95;55.72;101448.47;4947993;27;98668;-64
2023/11/18 03:36:44;;;;;;;;;;;;;;;9.95;56.17;101454.66;4957591;27;97922;-64
2023/11/18 03:39:10;;;;;;;;;;;;;;;9.95;55.59;101456.53;4951266;27;98251;-64
2023/11/18 03:41:37;;;;;;;;;;;;;;;9.94;55.91;101457.59;4948854;27;98249;-65
2023/11/18 03:44:06;;;;;;;;;;;;;;;9.94;56.23;101450.34;4949064;27;98490;-69
2023/11/18 03:46:34;;;;;;;;;;;;;;;9.94;55.77;101457.59;4967373;27;118503;-65
2023/11/18 03:49:00;;;;;;;;;;;;;;;9.95;56.10;101459.25;4951900;27;97976;-65
2023/11/18 03:51:28;;;;;;;;;;;;;;;9.94;55.45;101461.13;4950288;27;99707;-70
2023/11/18 03:53:54;;;;;;;;;;;;;;;9.93;55.91;101462.16;4965615;27;98242;-65
2023/11/18 03:56:20;;;;;;;;;;;;;;;9.92;56.04;101455.13;4957942;27;98262;-66
2023/11/18 03:58:47;;;;;;;;;;;;;;;9.93;55.66;101458.66;4950878;27;100278;-69
2023/11/18 04:01:26;;;;;;;;;;;;;;;9.92;56.21;101454.31;4948568;27;98314;-69
2023/11/18 04:03:52;;;;;;;;;;;;;;;9.91;55.82;101453.50;4957696;27;98297;-70
2023/11/18 04:06:21;;;;;;;;;;;;;;;9.91;55.77;101458.91;4955088;27;110917;-70
2023/11/18 04:08:47;;;;;;;;;;;;;;;9.91;56.12;101475.06;4969109;27;97964;-69
2023/11/18 04:11:14;;;;;;;;;;;;;;;9.91;56.10;101469.66;4966140;27;98106;-69
2023/11/18 04:13:43;;;;;;;;;;;;;;;9.90;55.53;101473.41;4955725;27;98092;-65
2023/11/18 04:16:15;;;;;;;;;;;;;;;9.94;56.14;101474.59;4969948;27;97958;-69
2023/11/18 04:18:42;;;;;;;;;;;;;;;10.01;55.77;101477.94;4967931;27;98810;-65
2023/11/18 04:21:12;;;;;;;;;;;;;;;10.07;55.78;101477.00;4967217;27;100114;-69
2023/11/18 04:23:39;;;;;;;;;;;;;;;10.13;56.19;101477.09;4952635;27;99381;-65
2023/11/18 04:26:07;;;;;;;;;;;;;;;10.15;55.92;101465.03;4949751;27;98612;-69
2023/11/18 04:28:35;;;;;;;;;;;;;;;10.19;55.62;101485.03;4967572;27;98301;-70
2023/11/18 04:31:02;;;;;;;;;;;;;;;10.23;55.76;101483.50;4969135;27;113341;-69
2023/11/18 04:33:29;;;;;;;;;;;;;;;10.24;56.25;101481.63;4966951;27;100389;-69
2023/11/18 04:35:57;;;;;;;;;;;;;;;10.26;56.00;101488.44;4971020;27;98717;-69
2023/11/18 04:38:23;;;;;;;;;;;;;;;10.27;55.81;101486.56;4967420;27;98289;-65
2023/11/18 04:40:49;;;;;;;;;;;;;;;10.27;55.75;101484.69;4970065;27;98256;-69
2023/11/18 04:43:15;;;;;;;;;;;;;;;10.29;55.91;101493.34;4965412;27;99957;-65
2023/11/18 04:45:44;;;;;;;;;;;;;;;10.28;56.14;101493.59;4960795;27;98185;-69
2023/11/18 04:48:10;;;;;;;;;;;;;;;10.28;55.84;101490.88;4953898;27;109333;-65
2023/11/18 04:50:36;;;;;;;;;;;;;;;10.28;56.38;101488.19;4951862;27;128317;-65
2023/11/18 04:53:03;;;;;;;;;;;;;;;10.29;55.72;101495.22;4949949;27;98627;-69
2023/11/18 04:55:29;;;;;;;;;;;;;;;10.28;56.05;101493.59;4968074;27;99684;-65
2023/11/18 04:57:55;;;;;;;;;;;;;;;10.29;56.11;101503.28;4938791;27;98480;-66
2023/11/18 05:00:22;;;;;;;;;;;;;;;10.27;55.93;101494.66;4965112;27;117053;-69
2023/11/18 05:02:48;;;;;;;;;;;;;;;10.26;55.81;101499.22;4947012;27;98143;-70
2023/11/18 05:05:15;;;;;;;;;;;;;;;10.26;56.08;101499.22;4947208;27;98415;-69
2023/11/18 05:07:42;;;;;;;;;;;;;;;10.26;55.80;101499.22;4942155;27;98448;-70
2023/11/18 05:10:08;;;;;;;;;;;;;;;10.26;56.29;101506.50;4935959;27;99794;-65
2023/11/18 05:12:34;;;;;;;;;;;;;;;10.25;55.70;101508.34;4962897;27;97942;-69
2023/11/18 05:15:00;;;;;;;;;;;;;;;10.25;55.87;101510.22;4965292;27;105304;-69
2023/11/18 05:17:27;;;;;;;;;;;;;;;10.24;56.32;101506.69;4982119;27;98158;-69
2023/11/18 05:19:56;;;;;;;;;;;;;;;10.24;55.86;101504.00;4961941;27;114756;-66
2023/11/18 05:22:22;;;;;;;;;;;;;;;10.24;56.08;101512.06;4962075;27;99912;-65
2023/11/18 05:24:48;;;;;;;;;;;;;;;10.24;56.27;101508.56;4967475;27;98003;-65
2023/11/18 05:27:15;;;;;;;;;;;;;;;10.23;55.69;101507.75;4969757;27;98225;-70
2023/11/18 05:29:41;;;;;;;;;;;;;;;10.23;56.37;101505.06;4979352;27;98554;-65
2023/11/18 05:32:08;;;;;;;;;;;;;;;10.23;55.60;101510.44;4969543;27;98196;-70
2023/11/18 05:34:35;;;;;;;;;;;;;;;10.23;56.31;101509.63;4965397;27;98289;-69
2023/11/18 05:37:01;;;;;;;;;;;;;;;10.22;55.82;101513.38;4976913;27;98258;-69
2023/11/18 05:39:30;;;;;;;;;;;;;;;10.23;56.07;101513.13;4968083;27;108621;-64
2023/11/18 05:41:56;;;;;;;;;;;;;;;10.23;55.80;101509.63;4968772;27;99011;-64
2023/11/18 05:44:30;;;;;;;;;;;;;;;10.22;55.78;101513.38;4969087;27;102785;-69
2023/11/18 05:46:59;;;;;;;;;;;;;;;10.22;56.16;101510.69;4970365;27;97969;-69
2023/11/18 05:49:25;;;;;;;;;;;;;;;10.21;56.32;101509.84;4938901;27;98359;-69
2023/11/18 05:51:51;;;;;;;;;;;;;;;10.21;56.31;101504.47;4952507;27;103531;-68
2023/11/18 05:54:17;;;;;;;;;;;;;;;10.21;56.02;101500.94;4965288;27;98836;-69
2023/11/18 05:56:43;;;;;;;;;;;;;;;10.20;55.91;101507.41;4970981;27;98546;-65
2023/11/18 05:59:10;;;;;;;;;;;;;;;10.20;56.28;101507.41;4974247;27;98359;-64
2023/11/18 06:01:37;;;;;;;;;;;;;;;10.21;56.04;101506.34;4980357;27;98486;-69
2023/11/18 06:04:03;;;;;;;;;;;;;;;10.21;55.99;101511.72;4963007;27;98064;-69
2023/11/18 06:06:31;;;;;;;;;;;;;;;10.22;55.82;101516.09;4968554;27;98179;-69
2023/11/18 06:09:04;;;;;;;;;;;;;;;10.21;55.92;101517.94;4982694;27;100081;-64
2023/11/18 06:11:31;;;;;;;;;;;;;;;10.23;55.66;101521.22;4987432;27;99632;-65
2023/11/18 06:13:57;;;;;;;;;;;;;;;10.23;55.81;101521.22;4968456;27;98722;-69
2023/11/18 06:16:24;;;;;;;;;;;;;;;10.25;56.24;101521.00;4980854;27;100115;-69
2023/11/18 06:18:52;;;;;;;;;;;;;;;10.27;56.08;101516.22;4960346;27;99545;-69
2023/11/18 06:21:19;;;;;;;;;;;;;;;10.27;56.11;101514.31;4978110;27;99833;-64
2023/11/18 06:23:47;;;;;;;;;;;;;;;10.29;55.94;101516.78;4992539;27;98143;-69
2023/11/18 06:26:14;;;;;;;;;;;;;;;10.30;55.77;101526.50;4957243;27;98177;-65
2023/11/18 06:28:41;;;;;;;;;;;;;;;10.31;55.78;101525.44;4991359;27;98445;-65
2023/11/18 06:31:11;;;;;;;;;;;;;;;10.32;56.08;101527.06;4965134;27;98629;-69
2023/11/18 06:33:42;;;;;;;;;;;;;;;10.34;55.84;101537.63;4962465;27;98381;-69
2023/11/18 06:36:10;;;;;;;;;;;;;;;10.36;56.05;101533.63;4965970;27;99507;-69
2023/11/18 06:38:37;;;;;;;;;;;;;;;10.38;55.68;101536.09;4977656;27;98262;-65
2023/11/18 06:41:05;;;;;;;;;;;;;;;10.40;55.61;101526.69;4993163;27;98297;-70
2023/11/18 06:43:49;;;;;;;;;;;;;;;10.42;55.57;101531.88;4975485;27;99605;-70
2023/11/18 06:46:15;;;;;;;;;;;;;;;10.43;55.83;101533.50;4973210;27;98384;-70
2023/11/18 06:48:41;;;;;;;;;;;;;;;10.47;55.83;101538.16;4971915;27;98136;-70
2023/11/18 06:51:11;;;;;;;;;;;;;;;10.49;56.28;101541.44;4964630;27;129279;-64
2023/11/18 06:53:37;;;;;;;;;;;;;;;10.52;55.68;101545.53;4968623;27;99193;-69
2023/11/18 06:56:03;;;;;;;;;;;;;;;10.54;55.70;101548.81;4967625;27;98206;-64
2023/11/18 06:58:29;;;;;;;;;;;;;;;10.57;55.78;101548.31;4977457;27;99483;-69
2023/11/18 07:00:55;;;;;;;;;;;;;;;10.60;56.01;101547.00;5009687;27;128252;-68
2023/11/18 07:03:21;;;;;;;;;;;;;;;10.62;55.71;101544.91;4978586;27;99330;-69
2023/11/18 07:05:47;;;;;;;;;;;;;;;10.65;55.74;101547.09;4978924;27;98505;-69
2023/11/18 07:08:17;;;;;;;;;;;;;;;10.67;55.76;101545.00;4974096;27;128491;-65
2023/11/18 07:10:43;;;;;;;;;;;;;;;10.68;55.83;101549.31;4976947;27;97946;-65
2023/11/18 07:13:10;;;;;;;;;;;;;;;10.70;55.77;101553.41;4956306;27;98311;-64
2023/11/18 07:15:36;;;;;;;;;;;;;;;10.73;55.59;101555.63;4965584;27;98570;-69
2023/11/18 07:18:02;;;;;;;;;;;;;;;10.74;55.72;101548.38;4965827;27;100701;-65
2023/11/18 07:20:28;;;;;;;;;;;;;;;10.75;55.68;101555.38;4975895;27;116293;-65
2023/11/18 07:22:55;;;;;;;;;;;;;;;10.75;55.52;101552.69;4992882;27;123527;-64
2023/11/18 07:25:21;;;;;;;;;;;;;;;10.77;55.67;101559.50;4981801;27;98110;-65
2023/11/18 07:27:47;;;;;;;;;;;;;;;10.81;55.81;101559.81;4982821;27;98268;-65
2023/11/18 07:30:14;;;;;;;;;;;;;;;10.82;55.99;101564.97;4960893;27;99878;-69
2023/11/18 07:32:40;;;;;;;;;;;;;;;10.84;55.59;101566.59;4963797;27;98665;-65
2023/11/18 07:35:09;;;;;;;;;;;;;;;10.87;55.68;101566.13;4978097;27;98020;-69
2023/11/18 07:37:36;;;;;;;;;;;;;;;10.89;55.72;101577.50;4989700;27;98764;-69
2023/11/18 07:40:05;;;;;;;;;;;;;;;10.91;55.70;101573.47;4983182;27;98054;-65
2023/11/18 07:42:34;;;;;;;;;;;;;;;10.94;55.64;101573.00;4997056;27;98158;-64
2023/11/18 07:45:04;;;;;;;;;;;;;;;10.97;55.78;101569.81;4958553;27;98331;-64
2023/11/18 07:47:34;;;;;;;;;;;;;;;11.00;55.45;101573.88;4963239;27;98559;-65
2023/11/18 07:50:04;;;;;;;;;;;;;;;11.03;55.69;101578.81;4963057;27;102200;-64
2023/11/18 07:52:30;;;;;;;;;;;;;;;11.05;55.55;101582.09;4964616;27;98256;-65
2023/11/18 07:54:56;;;;;;;;;;;;;;;11.06;55.55;101581.03;4966011;27;120131;-65
2023/11/18 07:57:24;;;;;;;;;;;;;;;11.09;55.67;101587.81;4972952;27;99076;-65
2023/11/18 07:59:50;;;;;;;;;;;;;;;11.10;55.54;101586.75;4966635;27;101199;-70
2023/11/18 08:02:18;;;;;;;;;;;;;;;11.12;55.60;101592.72;4974652;27;98580;-65
2023/11/18 08:04:45;;;;;;;;;;;;;;;11.16;55.63;101593.88;4963426;27;98559;-69
2023/11/18 08:07:11;;;;;;;;;;;;;;;11.20;55.58;101601.25;5007052;27;99366;-67
2023/11/18 08:09:38;;;;;;;;;;;;;;;11.21;55.56;101610.16;4973157;27;128007;-69
2023/11/18 08:12:09;;;;;;;;;;;;;;;11.23;55.55;101613.41;4961936;27;98109;-70
2023/11/18 08:14:35;;;;;;;;;;;;;;;11.25;55.54;101614.81;4965378;27;98925;-65
2023/11/18 08:17:01;;;;;;;;;;;;;;;11.28;55.50;101618.94;4965983;27;98999;-68
2023/11/18 08:19:27;;;;;;;;;;;;;;;11.31;55.35;101619.22;4969824;27;128782;-69
2023/11/18 08:21:53;;;;;;;;;;;;;;;11.38;55.45;101620.97;4965775;27;98201;-69
2023/11/18 08:24:19;;;;;;;;;;;;;;;11.44;55.37;101612.72;4979213;27;98093;-69
2023/11/18 08:26:46;;;;;;;;;;;;;;;11.50;55.18;101625.22;4972484;27;98173;-64
2023/11/18 08:29:12;;;;;;;;;;;;;;;11.56;55.37;101626.13;4981567;27;98863;-70
2023/11/18 08:31:43;;;;;;;;;;;;;;;11.62;55.21;101630.53;4973041;27;98732;-70
2023/11/18 08:34:10;;;;;;;;;;;;;;;11.63;55.36;101624.09;4966801;27;98828;-65
2023/11/18 08:36:36;;;;;;;;;;;;;;;11.71;55.21;101628.22;4972645;27;99869;-64
2023/11/18 08:39:02;;;;;;;;;;;;;;;11.74;55.41;101622.34;4957421;27;125907;-69
2023/11/18 08:41:30;;;;;;;;;;;;;;;11.79;55.24;101631.34;4976593;27;99666;-65
2023/11/18 08:43:57;;;;;;;;;;;;;;;11.90;55.25;101634.22;4974648;27;98750;-65
2023/11/18 08:46:23;;;;;;;;;;;;;;;11.94;55.00;101622.66;4962274;27;99414;-64
2023/11/18 08:48:49;;;;;;;;;;;;;;;12.01;55.14;101620.63;4963427;27;126939;-69
2023/11/18 08:51:16;;;;;;;;;;;;;;;12.18;54.79;101627.88;4961329;27;98792;-69
2023/11/18 08:53:42;;;;;;;;;;;;;;;12.23;54.90;101620.66;4962388;27;98221;-69
2023/11/18 08:56:13;;;;;;;;;;;;;;;12.36;54.60;101630.28;4974067;27;128838;-65
2023/11/18 08:58:41;;;;;;;;;;;;;;;12.42;55.06;101631.19;4975553;27;99001;-64
2023/11/18 09:01:13;;;;;;;;;;;;;;;12.52;54.91;101628.56;4964113;27;98642;-69
2023/11/18 09:03:43;;;;;;;;;;;;;;;12.65;54.44;101636.28;4972219;27;98392;-64
2023/11/18 09:06:18;;;;;;;;;;;;;;;12.93;54.60;101631.72;4964239;27;98207;-64
2023/11/18 09:08:52;;;;;;;;;;;;;;;13.16;54.35;101634.13;4962569;27;100149;-65
2023/11/18 09:11:19;;;;;;;;;;;;;;;13.09;54.59;101633.53;4958991;27;98567;-65
2023/11/18 09:13:49;;;;;;;;;;;;;;;13.08;54.84;101640.00;4962979;27;98134;-64
2023/11/18 09:16:15;;;;;;;;;;;;;;;13.15;54.61;101645.22;4966792;27;99413;-65
2023/11/18 09:18:44;;;;;;;;;;;;;;;13.20;54.45;101645.25;4961451;27;98117;-65
2023/11/18 09:21:19;;;;;;;;;;;;;;;13.20;54.81;101651.53;4959403;27;98223;-65
2023/11/18 09:23:47;;;;;;;;;;;;;;;13.18;54.59;101642.81;4967692;27;98487;-70
2023/11/18 09:26:14;;;;;;;;;;;;;;;13.21;54.94;101657.75;4959877;27;98481;-70
2023/11/18 09:28:40;;;;;;;;;;;;;;;13.40;54.42;101655.50;4964854;27;100213;-70
2023/11/18 09:31:11;;;;;;;;;;;;;;;13.58;54.18;101652.41;4958632;27;110146;-65
2023/11/18 09:33:39;;;;;;;;;;;;;;;13.72;54.45;101655.53;4992104;27;98298;-65
2023/11/18 09:36:12;;;;;;;;;;;;;;;13.67;54.59;101658.97;4978100;27;98439;-70
2023/11/18 09:38:40;;;;;;;;;;;;;;;13.68;54.63;101657.94;4957377;27;103226;-70
2023/11/18 09:41:10;;;;;;;;;;;;;;;13.68;54.62;101657.94;4975496;27;98028;-65
2023/11/18 09:43:45;;;;;;;;;;;;;;;13.67;54.50;101655.47;4967811;27;101262;-70
2023/11/18 09:46:14;;;;;;;;;;;;;;;13.65;54.44;101666.56;4967868;27;99631;-70
2023/11/18 09:48:47;;;;;;;;;;;;;;;13.59;54.85;101664.06;4964951;27;98151;-70
2023/11/18 09:51:21;;;;;;;;;;;;;;;13.60;54.85;101658.41;4958478;27;97996;-70
2023/11/18 09:53:50;;;;;;;;;;;;;;;13.64;54.60;101658.72;4960875;27;98307;-65
2023/11/18 09:56:34;;;;;;;;;;;;;;;13.69;54.50;101654.13;4977824;27;98210;-70
2023/11/18 09:59:15;;;;;;;;;;;;;;;13.85;54.44;101656.97;4999256;27;98426;-65
2023/11/18 10:01:42;;;;;;;;;;;;;;;14.14;54.34;101662.81;4984663;27;97900;-67
2023/11/18 10:04:10;;;;;;;;;;;;;;;14.39;53.77;101654.84;4961119;27;98462;-65
2023/11/18 10:06:38;;;;;;;;;;;;;;;14.63;53.70;101660.66;4972997;27;98290;-65
2023/11/18 10:09:14;;;;;;;;;;;;;;;14.69;54.06;101661.50;4981176;27;99884;-70
2023/11/18 10:11:41;;;;;;;;;;;;;;;14.87;53.90;101657.50;4978660;27;99824;-70
2023/11/18 10:14:08;;;;;;;;;;;;;;;15.09;53.69;101652.66;4952147;27;108585;-70
2023/11/18 10:16:34;;;;;;;;;;;;;;;15.18;53.56;101648.31;4977192;27;98139;-70
2023/11/18 10:19:08;;;;;;;;;;;;;;;15.26;53.78;101646.97;4959793;27;98538;-70
2023/11/18 10:21:41;;;;;;;;;;;;;;;15.32;53.63;101648.59;4967323;27;98968;-65
2023/11/18 10:24:19;;;;;;;;;;;;;;;15.41;53.70;101646.19;4994362;27;98368;-65
2023/11/18 10:26:45;;;;;;;;;;;;;;;15.53;53.57;101635.84;4979290;27;98492;-65
2023/11/18 10:29:12;;;;;;;;;;;;;;;15.62;53.67;101642.38;4976017;27;98324;-65
2023/11/18 10:31:45;;;;;;;;;;;;;;;15.70;53.57;101635.59;4962825;27;98511;-65
2023/11/18 10:34:15;;;;;;;;;;;;;;;15.69;53.82;101634.78;4961150;27;98701;-65
2023/11/18 10:36:43;;;;;;;;;;;;;;;15.76;53.74;101636.38;4965426;27;98026;-70
2023/11/18 10:39:16;;;;;;;;;;;;;;;15.76;53.65;101634.50;4934001;27;99808;-65
2023/11/18 10:41:42;;;;;;;;;;;;;;;15.66;53.86;101642.66;4964435;27;99187;-70
2023/11/18 10:44:13;;;;;;;;;;;;;;;15.54;54.20;101647.53;4976519;27;98095;-70
2023/11/18 10:46:50;;;;;;;;;;;;;;;15.43;54.11;101644.00;4968560;27;98514;-65
2023/11/18 10:49:16;;;;;;;;;;;;;;;15.34;54.46;101651.88;4988479;27;98469;-70
2023/11/18 10:51:43;;;;;;;;;;;;;;;15.22;54.42;101643.97;4982134;27;98514;-65
2023/11/18 10:54:15;;;;;;;;;;;;;;;15.15;54.73;101646.13;4957102;27;98312;-69
2023/11/18 10:56:47;;;;;;;;;;;;;;;15.05;54.85;101653.44;4964846;27;99805;-69
2023/11/18 10:59:16;;;;;;;;;;;;;;;14.93;54.91;101654.53;4974799;27;98940;-69
2023/11/18 11:01:42;;;;;;;;;;;;;;;14.81;54.87;101661.25;4962434;27;97967;-69
2023/11/18 11:04:10;;;;;;;;;;;;;;;14.70;55.13;101649.56;4992755;27;98431;-65
2023/11/18 11:06:43;;;;;;;;;;;;;;;14.63;55.17;101649.81;4958023;27;98035;-65
2023/11/18 11:09:14;;;;;;;;;;;;;;;14.57;55.25;101650.06;4978267;27;98921;-69
2023/11/18 11:11:43;;;;;;;;;;;;;;;14.49;55.03;101656.81;4962561;27;99622;-70
2023/11/18 11:14:08;;;;;;;;;;;;;;;14.43;55.15;101658.66;4978739;27;111572;-65
2023/11/18 11:16:38;;;;;;;;;;;;;;;14.40;54.95;101653.75;4959942;27;119882;-69
2023/11/18 11:19:08;;;;;;;;;;;;;;;14.37;55.16;101648.03;4977912;27;99907;-65
2023/11/18 11:21:47;;;;;;;;;;;;;;;14.36;55.31;101647.22;4965554;27;98420;-65
2023/11/18 11:24:33;;;;;;;;;;;;;;;14.36;55.24;101655.38;4964725;27;98154;-65
2023/11/18 11:27:05;;;;;;;;;;;;;;;14.40;55.10;101650.22;4968377;27;98286;-65
2023/11/18 11:29:35;;;;;;;;;;;;;;;14.42;54.95;101642.63;4978838;27;98422;-65
2023/11/18 11:32:12;;;;;;;;;;;;;;;14.46;54.92;101652.72;4981760;27;99064;-65
2023/11/18 11:34:45;;;;;;;;;;;;;;;14.50;55.07;101650.28;4982070;27;98075;-69
2023/11/18 11:37:11;;;;;;;;;;;;;;;14.53;55.02;101643.53;4967309;27;99457;-69
2023/11/18 11:39:37;;;;;;;;;;;;;;;14.56;54.59;101640.28;4973735;27;117956;-65
2023/11/18 11:42:04;;;;;;;;;;;;;;;14.58;54.67;101640.81;4982646;27;100129;-65
2023/11/18 11:44:29;;;;;;;;;;;;;;;14.61;54.68;101634.88;4980955;27;98237;-65
2023/11/18 11:46:59;;;;;;;;;;;;;;;14.63;54.94;101640.88;4972752;27;98545;-64
2023/11/18 11:49:30;;;;;;;;;;;;;;;14.65;54.89;101635.97;4966436;27;98464;-64
2023/11/18 11:52:20;;;;;;;;;;;;;;;14.66;54.66;101626.78;4978261;27;98387;-64
2023/11/18 11:54:56;;;;;;;;;;;;;;;14.64;54.93;101632.44;4974869;27;99350;-69
2023/11/18 11:57:27;;;;;;;;;;;;;;;14.63;54.72;101641.69;4935828;27;99900;-69
2023/11/18 11:59:55;;;;;;;;;;;;;;;14.60;55.17;101642.19;4961406;27;98412;-64
2023/11/18 12:02:28;;;;;;;;;;;;;;;14.58;54.79;101638.09;4983849;27;98414;-69
2023/11/18 12:04:58;;;;;;;;;;;;;;;14.54;55.05;101637.84;4968551;27;98351;-64
2023/11/18 12:07:27;;;;;;;;;;;;;;;14.50;54.99;101634.00;4969376;27;99067;-65
2023/11/18 12:09:59;;;;;;;;;;;;;;;14.44;54.92;101633.16;4963283;27;98468;-65
2023/11/18 12:12:26;;;;;;;;;;;;;;;14.40;54.93;101633.94;4965299;27;98261;-69
2023/11/18 12:15:11;;;;;;;;;;;;;;;14.39;54.95;101618.75;4983737;27;101232;-69
2023/11/18 12:18:12;;;;;;;;;;;;;;;14.38;55.10;101609.81;4971177;27;100033;-64
2023/11/18 12:20:45;;;;;;;;;;;;;;;14.35;54.96;101607.63;4963555;27;100128;-64
2023/11/18 12:23:18;;;;;;;;;;;;;;;14.35;55.17;101594.06;4964757;27;98523;-69
2023/11/18 12:25:45;;;;;;;;;;;;;;;14.33;55.26;101595.41;4991966;27;103483;-69
2023/11/18 12:28:27;;;;;;;;;;;;;;;14.30;55.12;101588.59;4992376;27;100126;-65
2023/11/18 12:30:56;;;;;;;;;;;;;;;14.28;55.23;101588.06;4978410;27;98118;-70
2023/11/18 12:33:30;;;;;;;;;;;;;;;14.27;55.44;101578.31;4958712;27;99563;-70
2023/11/18 12:36:29;;;;;;;;;;;;;;;14.23;55.26;101580.72;4962950;27;99228;-65
2023/11/18 12:39:31;;;;;;;;;;;;;;;14.17;55.46;101587.19;4987721;27;98745;-65
2023/11/18 12:42:11;;;;;;;;;;;;;;;14.13;55.19;101583.38;4979482;27;98873;-65